createdAt,value
2023-08-15T00:03:03.225Z,93364.22
2023-08-15T00:06:06.203Z,93365.81
2023-08-15T00:09:10.222Z,93372.28
2023-08-15T00:12:13.111Z,93369.03
2023-08-15T00:15:16.936Z,93371.06
2023-08-15T00:18:20.203Z,93355.38
2023-08-15T00:21:23.909Z,93357.44
2023-08-15T00:24:27.476Z,93362.94
2023-08-15T00:27:31.338Z,93358.50
2023-08-15T00:30:35.108Z,93357.84
2023-08-15T00:33:38.484Z,93352.41
2023-08-15T00:36:41.768Z,93351.94
2023-08-15T00:39:45.807Z,93341.50
2023-08-15T00:42:49.436Z,93359.66
2023-08-15T00:45:53.874Z,93361.22
2023-08-15T00:49:00.488Z,93351.41
2023-08-15T00:52:05.555Z,93348.56
2023-08-15T00:55:11.359Z,93347.09
2023-08-15T00:58:14.933Z,93343.03
2023-08-15T01:01:19.532Z,93346.09
2023-08-15T01:04:23.682Z,93344.03
2023-08-15T01:07:27.059Z,93345.06
2023-08-15T01:10:31.287Z,93343.00
2023-08-15T01:14:01.722Z,93341.53
2023-08-15T01:17:07.325Z,93340.34
2023-08-15T01:20:16.211Z,93343.00
2023-08-15T01:23:30.697Z,93345.25
2023-08-15T01:26:34.509Z,93342.22
2023-08-15T01:29:37.867Z,93343.34
2023-08-15T01:32:46.709Z,93332.59
2023-08-15T01:35:57.429Z,93336.13
2023-08-15T01:39:04.821Z,93338.72
2023-08-15T01:42:08.857Z,93333.31
2023-08-15T01:45:13.389Z,93319.63
2023-08-15T01:48:17.348Z,93321.88
2023-08-15T01:51:20.452Z,93315.16
2023-08-15T01:54:23.538Z,93311.78
2023-08-15T01:57:26.850Z,93310.91
2023-08-15T02:00:29.907Z,93311.13
2023-08-15T02:03:32.799Z,93306.28
2023-08-15T02:06:37.171Z,93307.00
2023-08-15T02:09:40.820Z,93305.31
2023-08-15T02:12:43.721Z,93306.28
2023-08-15T02:15:47.528Z,93302.69
2023-08-15T02:18:50.979Z,93299.75
2023-08-15T02:21:54.020Z,93295.06
2023-08-15T02:24:57.687Z,93298.34
2023-08-15T02:28:03.109Z,93299.47
2023-08-15T02:31:07.326Z,93302.50
2023-08-15T02:34:10.867Z,93296.69
2023-08-15T02:37:14.900Z,93294.09
2023-08-15T02:40:18.691Z,93294.94
2023-08-15T02:43:22.715Z,93281.63
2023-08-15T02:46:28.594Z,93282.31
2023-08-15T02:49:32.911Z,93280.84
2023-08-15T02:52:36.703Z,93282.63
2023-08-15T02:55:40.622Z,93279.66
2023-08-15T02:58:44.439Z,93279.38
2023-08-15T03:01:49.711Z,93284.34
2023-08-15T03:04:53.116Z,93271.13
2023-08-15T03:07:57.180Z,93277.34
2023-08-15T03:11:01.026Z,93274.47
2023-08-15T03:14:05.218Z,93267.03
2023-08-15T03:17:09.412Z,93264.44
2023-08-15T03:20:14.075Z,93264.50
2023-08-15T03:23:18.289Z,93256.31
2023-08-15T03:26:22.296Z,93258.69
2023-08-15T03:29:26.296Z,93250.84
2023-08-15T03:32:30.087Z,93253.50
2023-08-15T03:35:33.851Z,93243.59
2023-08-15T03:38:37.911Z,93243.53
2023-08-15T03:41:41.630Z,93237.09
2023-08-15T03:44:45.666Z,93238.53
2023-08-15T03:47:48.675Z,93239.97
2023-08-15T03:50:54.147Z,93237.22
2023-08-15T03:53:57.172Z,93229.53
2023-08-15T03:57:00.490Z,93224.53
2023-08-15T04:00:03.679Z,93226.50
2023-08-15T04:03:17.744Z,93224.66
2023-08-15T04:06:21.983Z,93210.31
2023-08-15T04:09:25.114Z,93205.13
2023-08-15T04:12:28.137Z,93203.19
2023-08-15T04:15:32.316Z,93199.34
2023-08-15T04:18:37.330Z,93193.47
2023-08-15T04:21:41.173Z,93186.38
2023-08-15T04:24:44.503Z,93181.22
2023-08-15T04:27:47.530Z,93174.63
2023-08-15T04:30:51.622Z,93178.94
2023-08-15T04:33:54.576Z,93177.53
2023-08-15T04:36:57.965Z,93184.16
2023-08-15T04:40:01.710Z,93172.50
2023-08-15T04:43:05.996Z,93175.28
2023-08-15T04:46:09.437Z,93166.50
2023-08-15T04:49:12.921Z,93171.31
2023-08-15T04:52:17.968Z,93179.81
2023-08-15T04:55:21.469Z,93176.63
2023-08-15T04:58:24.484Z,93171.41
2023-08-15T05:01:27.852Z,93164.72
2023-08-15T05:04:31.967Z,93170.66
2023-08-15T05:07:35.675Z,93177.09
2023-08-15T05:10:39.795Z,93176.53
2023-08-15T05:13:45.471Z,93181.44
2023-08-15T05:16:49.540Z,93170.31
2023-08-15T05:19:53.688Z,93171.59
2023-08-15T05:22:57.502Z,93161.34
2023-08-15T05:26:01.816Z,93159.75
2023-08-15T05:29:05.855Z,93165.44
2023-08-15T05:32:09.621Z,93166.38
2023-08-15T05:35:13.755Z,93168.47
2023-08-15T05:38:18.494Z,93175.91
2023-08-15T05:41:22.217Z,93176.72
2023-08-15T05:44:26.649Z,93175.06
2023-08-15T05:47:30.342Z,93178.34
2023-08-15T05:50:34.130Z,93175.91
2023-08-15T05:53:37.775Z,93181.25
2023-08-15T05:56:43.012Z,93190.38
2023-08-15T05:59:46.817Z,93185.56
2023-08-15T06:02:50.909Z,93200.38
2023-08-15T06:06:00.187Z,93197.47
2023-08-15T06:09:04.120Z,93184.41
2023-08-15T06:12:08.248Z,93187.97
2023-08-15T06:15:12.486Z,93199.44
2023-08-15T06:18:16.179Z,93193.59
2023-08-15T06:21:20.128Z,93188.13
2023-08-15T06:24:23.480Z,93182.09
2023-08-15T06:27:27.834Z,93171.44
2023-08-15T06:30:31.446Z,93167.84
2023-08-15T06:33:35.094Z,93171.44
2023-08-15T06:36:38.916Z,93155.66
2023-08-15T06:39:42.610Z,93156.91
2023-08-15T06:42:45.531Z,93147.34
2023-08-15T06:45:49.504Z,93158.50
2023-08-15T06:48:53.000Z,93165.66
2023-08-15T06:51:56.870Z,93180.28
2023-08-15T06:58:04.773Z,93179.47
2023-08-15T07:01:08.979Z,93181.91
2023-08-15T07:04:13.632Z,93191.66
2023-08-15T07:07:17.878Z,93202.69
2023-08-15T07:10:21.330Z,93206.53
2023-08-15T07:13:25.452Z,93212.00
2023-08-15T07:16:28.435Z,93213.16
2023-08-15T07:19:33.697Z,93208.06
2023-08-15T07:22:37.889Z,93210.03
2023-08-15T07:25:45.404Z,93217.78
2023-08-15T07:28:49.065Z,93214.66
2023-08-15T07:31:52.957Z,93218.31
2023-08-15T07:34:57.102Z,93224.81
2023-08-15T07:38:02.029Z,93218.94
2023-08-15T07:41:05.112Z,93224.22
2023-08-15T07:44:08.730Z,93246.72
2023-08-15T07:47:12.471Z,93255.19
2023-08-15T07:50:24.581Z,93270.41
2023-08-15T07:53:28.567Z,93277.16
2023-08-15T07:56:33.428Z,93272.38
2023-08-15T07:59:37.704Z,93264.31
2023-08-15T08:02:42.376Z,93268.22
2023-08-15T08:05:46.081Z,93271.94
2023-08-15T08:08:49.401Z,93274.88
2023-08-15T08:11:53.890Z,93286.75
2023-08-15T08:14:58.195Z,93299.78
2023-08-15T08:18:01.286Z,93300.78
2023-08-15T08:21:06.837Z,93308.16
2023-08-15T08:24:09.880Z,93323.50
2023-08-15T08:27:13.438Z,93315.16
2023-08-15T08:30:19.869Z,93322.03
2023-08-15T08:33:23.169Z,93334.13
2023-08-15T08:36:26.227Z,93337.91
2023-08-15T08:39:32.677Z,93331.84
2023-08-15T08:42:36.748Z,93333.44
2023-08-15T08:45:44.776Z,93341.72
2023-08-15T08:48:49.295Z,93350.13
2023-08-15T08:51:53.133Z,93345.50
2023-08-15T08:54:57.763Z,93345.47
2023-08-15T08:58:04.457Z,93338.88
2023-08-15T09:01:09.203Z,93334.91
2023-08-15T09:04:12.769Z,93326.69
2023-08-15T09:07:20.521Z,93332.13
2023-08-15T09:10:24.955Z,93336.47
2023-08-15T09:13:28.606Z,93337.19
2023-08-15T09:16:33.086Z,93340.13
2023-08-15T09:19:42.257Z,93336.59
2023-08-15T09:22:48.292Z,93335.25
2023-08-15T09:25:56.053Z,93354.09
2023-08-15T09:28:59.301Z,93352.78
2023-08-15T09:32:03.012Z,93350.50
2023-08-15T09:35:07.474Z,93353.94
2023-08-15T09:38:10.833Z,93355.59
2023-08-15T09:41:15.025Z,93357.31
2023-08-15T09:44:34.968Z,93355.38
2023-08-15T09:47:42.494Z,93377.31
2023-08-15T09:50:47.435Z,93377.13
2023-08-15T09:53:51.597Z,93374.47
2023-08-15T09:56:55.778Z,93376.22
2023-08-15T09:59:59.149Z,93370.03
2023-08-15T10:03:10.476Z,93373.97
2023-08-15T10:06:15.695Z,93369.72
2023-08-15T10:09:19.718Z,93373.75
2023-08-15T10:12:23.611Z,93379.16
2023-08-15T10:15:28.432Z,93371.88
2023-08-15T10:18:33.139Z,93372.81
2023-08-15T10:21:53.328Z,93376.25
2023-08-15T10:24:57.114Z,93370.16
2023-08-15T10:28:00.964Z,93364.06
2023-08-15T10:31:05.315Z,93364.44
2023-08-15T10:34:13.211Z,93367.63
2023-08-15T10:37:39.186Z,93367.69
2023-08-15T10:40:45.072Z,93359.00
2023-08-15T10:43:54.475Z,93359.00
2023-08-15T10:46:58.394Z,93357.94
2023-08-15T10:50:02.049Z,93357.75
2023-08-15T10:53:07.254Z,93359.69
2023-08-15T10:56:11.635Z,93351.97
2023-08-15T10:59:16.732Z,93354.13
2023-08-15T11:02:20.372Z,93347.00
2023-08-15T11:05:23.550Z,93344.38
2023-08-15T11:08:27.225Z,93351.84
2023-08-15T11:11:35.967Z,93348.81
2023-08-15T11:14:39.573Z,93347.22
2023-08-15T11:17:52.614Z,93351.44
2023-08-15T11:20:55.790Z,93353.25
2023-08-15T11:24:02.647Z,93353.81
2023-08-15T11:27:06.209Z,93354.03
2023-08-15T11:30:11.019Z,93355.28
2023-08-15T11:33:14.212Z,93366.44
2023-08-15T11:36:18.041Z,93361.94
2023-08-15T11:39:21.835Z,93368.47
2023-08-15T11:42:26.395Z,93374.88
2023-08-15T11:45:33.760Z,93379.13
2023-08-15T11:48:37.745Z,93378.25
2023-08-15T11:51:41.223Z,93392.34
2023-08-15T11:54:48.156Z,93385.31
2023-08-15T11:57:53.766Z,93393.81
2023-08-15T12:01:09.138Z,93399.78
2023-08-15T12:04:15.780Z,93398.38
2023-08-15T12:07:21.448Z,93401.38
2023-08-15T12:10:26.396Z,93408.59
2023-08-15T12:13:34.174Z,93415.44
2023-08-15T12:16:41.459Z,93430.63
2023-08-15T12:19:45.531Z,93436.03
2023-08-15T12:22:49.535Z,93443.59
2023-08-15T12:25:52.935Z,93444.81
2023-08-15T12:28:56.997Z,93455.72
2023-08-15T12:32:01.884Z,93452.22
2023-08-15T12:35:06.447Z,93456.75
2023-08-15T12:38:10.438Z,93470.63
2023-08-15T12:41:15.604Z,93484.84
2023-08-15T12:44:19.322Z,93489.91
2023-08-15T12:47:24.046Z,93501.88
2023-08-15T12:50:28.409Z,93494.16
2023-08-15T12:53:32.944Z,93484.81
2023-08-15T12:56:37.260Z,93493.25
2023-08-15T12:59:41.431Z,93492.34
2023-08-15T13:02:45.084Z,93483.50
2023-08-15T13:05:49.233Z,93473.38
2023-08-15T13:08:54.026Z,93481.44
2023-08-15T13:11:58.866Z,93484.09
2023-08-15T13:15:02.533Z,93477.72
2023-08-15T13:18:07.534Z,93463.94
2023-08-15T13:21:11.948Z,93465.78
2023-08-15T13:27:43.715Z,93444.84
2023-08-15T13:30:49.131Z,93448.69
2023-08-15T13:33:52.904Z,93451.72
2023-08-15T13:36:57.855Z,93455.56
2023-08-15T13:40:02.197Z,93463.81
2023-08-15T13:43:07.022Z,93462.97
2023-08-15T13:46:12.198Z,93472.72
2023-08-15T13:49:16.919Z,93472.47
2023-08-15T13:52:21.534Z,93465.06
2023-08-15T13:55:26.548Z,93476.25
2023-08-15T13:58:30.923Z,93469.88
2023-08-15T14:01:35.817Z,93486.41
2023-08-15T14:04:39.656Z,93494.63
2023-08-15T14:07:44.182Z,93493.09
2023-08-15T14:10:47.823Z,93494.53
2023-08-15T14:13:51.885Z,93490.47
2023-08-15T14:16:56.234Z,93493.19
2023-08-15T14:19:59.997Z,93507.50
2023-08-15T14:23:04.913Z,93512.91
2023-08-15T14:26:08.688Z,93520.28
2023-08-15T14:29:12.740Z,93520.56
2023-08-15T14:32:15.686Z,93522.31
2023-08-15T14:35:21.264Z,93524.63
2023-08-15T14:38:25.242Z,93520.41
2023-08-15T14:41:29.010Z,93521.81
2023-08-15T14:44:34.284Z,93520.41
2023-08-15T14:47:41.320Z,93526.66
2023-08-15T14:50:45.203Z,93515.84
2023-08-15T14:53:49.359Z,93529.06
2023-08-15T14:56:53.002Z,93535.53
2023-08-15T14:59:57.007Z,93541.91
2023-08-15T15:03:01.163Z,93543.66
2023-08-15T15:06:04.614Z,93545.56
2023-08-15T15:09:07.574Z,93545.06
2023-08-15T15:12:11.495Z,93561.63
2023-08-15T15:15:15.212Z,93561.94
2023-08-15T15:18:18.810Z,93569.53
2023-08-15T15:21:21.678Z,93573.72
2023-08-15T15:24:24.934Z,93571.09
2023-08-15T15:27:28.382Z,93580.56
2023-08-15T15:30:31.916Z,93578.41
2023-08-15T15:33:35.415Z,93588.22
2023-08-15T15:36:38.710Z,93583.06
2023-08-15T15:39:42.194Z,93586.47
2023-08-15T15:42:45.033Z,93583.22
2023-08-15T15:45:48.092Z,93593.59
2023-08-15T15:48:51.964Z,93597.69
2023-08-15T15:51:55.764Z,93593.75
2023-08-15T15:54:59.223Z,93601.81
2023-08-15T15:58:02.064Z,93591.41
2023-08-15T16:01:06.228Z,93591.19
2023-08-15T16:04:10.641Z,93587.63
2023-08-15T16:07:16.520Z,93592.88
2023-08-15T16:10:19.993Z,93591.97
2023-08-15T16:13:24.698Z,93596.72
2023-08-15T16:16:28.008Z,93586.28
2023-08-15T16:19:31.013Z,93591.75
2023-08-15T16:22:34.984Z,93590.22
2023-08-15T16:25:37.979Z,93587.53
2023-08-15T16:28:42.438Z,93583.69
2023-08-15T16:31:46.125Z,93583.78
2023-08-15T16:34:49.411Z,93584.22
2023-08-15T16:37:52.516Z,93581.31
2023-08-15T16:40:56.476Z,93587.03
2023-08-15T16:44:00.255Z,93586.88
2023-08-15T16:47:04.765Z,93589.44
2023-08-15T16:50:08.377Z,93596.19
2023-08-15T16:53:12.290Z,93600.09
2023-08-15T16:56:17.759Z,93599.38
2023-08-15T16:59:21.888Z,93606.25
2023-08-15T17:02:26.077Z,93599.38
2023-08-15T17:05:30.357Z,93603.06
2023-08-15T17:08:34.445Z,93604.56
2023-08-15T17:11:37.702Z,93609.25
2023-08-15T17:14:41.610Z,93624.66
2023-08-15T17:17:45.681Z,93612.94
2023-08-15T17:20:48.717Z,93616.47
2023-08-15T17:23:52.628Z,93616.75
2023-08-15T17:26:56.283Z,93631.78
2023-08-15T17:29:59.551Z,93623.47
2023-08-15T17:33:02.506Z,93632.81
2023-08-15T17:36:06.763Z,93632.91
2023-08-15T17:39:10.508Z,93635.03
2023-08-15T17:42:14.446Z,93631.25
2023-08-15T17:45:18.271Z,93624.66
2023-08-15T17:48:21.534Z,93638.25
2023-08-15T17:51:24.619Z,93631.28
2023-08-15T17:54:28.187Z,93638.97
2023-08-15T17:57:31.389Z,93634.47
2023-08-15T18:00:35.505Z,93644.53
2023-08-15T18:03:39.222Z,93637.38
2023-08-15T18:06:42.747Z,93643.81
2023-08-15T18:09:45.841Z,93641.94
2023-08-15T18:12:49.850Z,93649.56
2023-08-15T18:15:53.628Z,93649.13
2023-08-15T18:18:57.981Z,93658.69
2023-08-15T18:22:01.442Z,93657.53
2023-08-15T18:25:05.699Z,93655.94
2023-08-15T18:28:09.914Z,93659.06
2023-08-15T18:31:13.622Z,93657.66
2023-08-15T18:34:17.246Z,93656.94
2023-08-15T18:37:21.634Z,93651.94
2023-08-15T18:40:24.588Z,93653.66
2023-08-15T18:43:27.921Z,93647.50
2023-08-15T18:46:30.968Z,93645.56
2023-08-15T18:49:34.304Z,93655.34
2023-08-15T18:52:37.333Z,93656.09
2023-08-15T18:55:41.530Z,93641.09
2023-08-15T18:58:47.782Z,93639.66
2023-08-15T19:01:51.951Z,93639.22
2023-08-15T19:04:59.747Z,93637.84
2023-08-15T19:08:03.156Z,93641.47
2023-08-15T19:11:06.791Z,93642.91
2023-08-15T19:14:11.086Z,93635.31
2023-08-15T19:17:14.455Z,93643.13
2023-08-15T19:20:27.595Z,93635.72
2023-08-15T19:23:31.132Z,93654.25
2023-08-15T19:26:35.338Z,93627.84
2023-08-15T19:29:38.344Z,93638.56
2023-08-15T19:32:42.032Z,93639.06
2023-08-15T19:35:47.176Z,93643.59
2023-08-15T19:38:51.500Z,93642.63
2023-08-15T19:41:54.408Z,93643.59
2023-08-15T19:44:58.619Z,93646.47
2023-08-15T19:48:01.648Z,93644.78
2023-08-15T19:51:05.642Z,93649.81
2023-08-15T19:54:08.628Z,93653.19
2023-08-15T19:57:12.683Z,93657.44
2023-08-15T20:00:15.821Z,93660.56
2023-08-15T20:03:19.654Z,93652.94
2023-08-15T20:06:22.636Z,93656.31
2023-08-15T20:09:26.340Z,93656.53
2023-08-15T20:12:29.888Z,93657.00
2023-08-15T20:15:33.243Z,93655.59
2023-08-15T20:18:36.262Z,93656.31
2023-08-15T20:21:39.299Z,93652.75
2023-08-15T20:24:42.879Z,93660.59
2023-08-15T20:27:46.565Z,93657.72
2023-08-15T20:30:49.567Z,93658.69
2023-08-15T20:33:53.614Z,93659.41
2023-08-15T20:36:57.191Z,93653.47
2023-08-15T20:40:00.487Z,93660.13
2023-08-15T20:43:03.532Z,93653.94
2023-08-15T20:46:06.798Z,93657.97
2023-08-15T20:49:10.308Z,93666.31
2023-08-15T20:52:14.037Z,93672.00
2023-08-15T20:55:18.222Z,93668.66
2023-08-15T20:58:22.333Z,93671.06
2023-08-15T21:01:25.517Z,93676.28
2023-08-15T21:04:28.918Z,93676.75
2023-08-15T21:07:32.597Z,93680.31
2023-08-15T21:10:36.432Z,93679.63
2023-08-15T21:13:39.744Z,93682.47
2023-08-15T21:16:42.781Z,93701.03
2023-08-15T21:19:46.450Z,93708.38
2023-08-15T21:22:50.121Z,93703.16
2023-08-15T21:25:54.072Z,93705.78
2023-08-15T21:28:57.078Z,93710.75
2023-08-15T21:32:01.211Z,93706.47
2023-08-15T21:35:05.103Z,93722.66
2023-08-15T21:38:08.427Z,93724.31
2023-08-15T21:41:12.008Z,93729.09
2023-08-15T21:44:15.406Z,93730.75
2023-08-15T21:47:19.130Z,93737.41
2023-08-15T21:50:23.065Z,93741.19
2023-08-15T21:53:26.683Z,93726.69
2023-08-15T21:56:31.885Z,93724.06
2023-08-15T21:59:35.158Z,93726.22
2023-08-15T22:02:39.497Z,93711.00
2023-08-15T22:05:48.226Z,93714.56
2023-08-15T22:08:52.612Z,93716.25
2023-08-15T22:11:55.559Z,93716.47
2023-08-15T22:14:59.643Z,93719.34
2023-08-15T22:18:17.771Z,93725.50
2023-08-15T22:21:23.488Z,93716.00
2023-08-15T22:24:26.511Z,93710.75
2023-08-15T22:27:30.198Z,93722.41
2023-08-15T22:30:33.301Z,93717.41
2023-08-15T22:33:36.291Z,93714.09
2023-08-15T22:36:39.870Z,93719.09
2023-08-15T22:39:43.340Z,93727.41
2023-08-15T22:42:46.322Z,93724.56
2023-08-15T22:45:49.676Z,93725.75
2023-08-15T22:48:53.027Z,93728.16
2023-08-15T22:51:57.188Z,93732.66
2023-08-15T22:55:00.864Z,93733.38
2023-08-15T22:58:03.839Z,93723.84
2023-08-15T23:01:07.847Z,93723.78
2023-08-15T23:04:10.848Z,93721.94
2023-08-15T23:07:14.544Z,93721.03
2023-08-15T23:10:17.871Z,93720.50
2023-08-15T23:13:22.636Z,93704.78
2023-08-15T23:16:26.693Z,93709.75
2023-08-15T23:19:29.921Z,93709.50
2023-08-15T23:22:33.188Z,93705.25
2023-08-15T23:25:36.431Z,93709.97
2023-08-15T23:28:40.501Z,93694.25
2023-08-15T23:31:43.521Z,93692.38
2023-08-15T23:34:46.871Z,93698.50
2023-08-15T23:37:49.951Z,93706.59
2023-08-15T23:40:54.002Z,93694.69
2023-08-15T23:43:57.683Z,93698.31
2023-08-15T23:47:01.793Z,93692.53
2023-08-15T23:50:07.085Z,93682.75
2023-08-15T23:53:10.668Z,93685.78
2023-08-15T23:56:14.557Z,93692.97
2023-08-15T23:59:18.606Z,93694.56
